Time;durP1;ratioP1;P1;durP2;ratioP2;P2;SDS_P1;SDS_P2;PMS_P1;PMS_P2;Temp;Humidity;BMP_temperature;BMP_pressure;BME280_temperature;BME280_humidity;BME280_pressure;Samples;Min_cycle;Max_cycle;Signal;HPM_P1;HPM_P2
2024/03/08 00:00:18;;;;;;;23.85;11.52;;;;;;;-0.13;100.00;96004.03;1038687;28;20590;-66
2024/03/08 00:00:48;;;;;;;23.65;11.70;;;;;;;-0.14;100.00;96007.56;1038604;28;20049;-63
2024/03/08 00:01:19;;;;;;;22.05;11.32;;;;;;;-0.17;100.00;96003.56;1038846;28;20256;-66
2024/03/08 00:01:49;;;;;;;20.50;10.45;;;;;;;-0.16;100.00;96005.19;1038912;28;20036;-66
2024/03/08 00:02:20;;;;;;;18.77;10.93;;;;;;;-0.14;100.00;96007.56;1034844;28;20025;-67
2024/03/08 00:02:50;;;;;;;22.63;11.75;;;;;;;-0.16;100.00;96002.63;1034933;28;20026;-65
2024/03/08 00:03:21;;;;;;;18.83;9.93;;;;;;;-0.16;100.00;96005.19;1038927;28;20017;-66
2024/03/08 00:03:52;;;;;;;19.48;10.68;;;;;;;-0.17;100.00;96003.56;1039044;28;20040;-65
2024/03/08 00:04:22;;;;;;;18.65;10.52;;;;;;;-0.15;100.00;96005.97;1038709;28;20022;-67
2024/03/08 00:04:53;;;;;;;19.38;11.13;;;;;;;-0.17;100.00;96006.16;1034886;28;20509;-66
2024/03/08 00:05:23;;;;;;;20.15;11.13;;;;;;;-0.17;100.00;96006.16;1038919;28;20029;-65
2024/03/08 00:05:54;;;;;;;25.75;10.93;;;;;;;-0.18;100.00;96001.19;1038659;28;20021;-66
2024/03/08 00:06:25;;;;;;;21.42;10.68;;;;;;;-0.17;100.00;96000.22;1039059;28;20025;-65
2024/03/08 00:06:55;;;;;;;22.35;11.00;;;;;;;-0.17;100.00;96001.00;1034558;28;20257;-65
2024/03/08 00:07:27;;;;;;;19.65;10.48;;;;;;;-0.15;100.00;96000.81;1030575;28;20033;-66
2024/03/08 00:07:58;;;;;;;24.42;11.77;;;;;;;-0.17;100.00;95998.41;1030992;28;20584;-66
2024/03/08 00:08:30;;;;;;;20.42;10.68;;;;;;;-0.17;100.00;95998.41;1027240;28;20278;-66
2024/03/08 00:09:01;;;;;;;22.80;11.98;;;;;;;-0.21;100.00;95986.91;1031398;28;20018;-64
2024/03/08 00:09:31;;;;;;;18.33;10.18;;;;;;;-0.16;100.00;95992.31;1022501;28;20263;-65
2024/03/08 00:10:03;;;;;;;20.73;10.57;;;;;;;-0.16;100.00;96004.41;1023059;28;20035;-65
2024/03/08 00:10:34;;;;;;;20.90;11.70;;;;;;;-0.15;100.00;95998.25;1027452;28;20015;-66
2024/03/08 00:11:04;;;;;;;22.83;11.10;;;;;;;-0.17;100.00;96003.56;1027528;28;20273;-67
2024/03/08 00:11:35;;;;;;;22.25;11.57;;;;;;;-0.17;100.00;95997.63;1035188;28;20029;-66
2024/03/08 00:12:06;;;;;;;23.00;10.73;;;;;;;-0.18;100.00;95999.41;1035123;28;20619;-66
2024/03/08 00:12:43;;;;;;;23.40;11.00;;;;;;;-0.17;100.00;95995.84;1030525;28;20050;-66
2024/03/08 00:13:13;;;;;;;20.63;10.93;;;;;;;-0.19;100.00;95999.63;1030955;28;20356;-66
2024/03/08 00:13:44;;;;;;;22.27;10.93;;;;;;;-0.17;100.00;95992.47;1031791;28;20265;-65
2024/03/08 00:14:16;;;;;;;20.27;11.25;;;;;;;-0.22;100.00;95979.38;1031887;28;20061;-66
2024/03/08 00:14:46;;;;;;;23.75;11.82;;;;;;;-0.16;100.00;95996.66;1027067;28;20258;-66
2024/03/08 00:15:17;;;;;;;24.35;11.02;;;;;;;-0.15;100.00;95995.66;1026778;28;20257;-66
2024/03/08 00:15:47;;;;;;;21.85;11.18;;;;;;;-0.17;100.00;95993.25;1027048;28;20030;-66
2024/03/08 00:16:19;;;;;;;23.58;11.52;;;;;;;-0.16;100.00;95994.09;1026706;28;20015;-65
2024/03/08 00:16:49;;;;;;;24.02;12.00;;;;;;;-0.18;100.00;95991.69;1030713;28;20022;-65
2024/03/08 00:17:23;;;;;;;21.77;11.38;;;;;;;-0.19;100.00;95994.47;1031030;28;20269;-66
2024/03/08 00:17:53;;;;;;;21.55;11.10;;;;;;;-0.20;100.00;95988.50;1031828;28;20073;-66
2024/03/08 00:18:24;;;;;;;20.00;10.55;;;;;;;-0.19;100.00;95995.25;1038722;28;20283;-65
2024/03/08 00:18:54;;;;;;;21.88;11.43;;;;;;;-0.19;100.00;95989.31;1039044;28;20440;-67
2024/03/08 00:19:25;;;;;;;21.67;11.23;;;;;;;-0.20;100.00;95985.13;1038626;28;20036;-65
2024/03/08 00:19:55;;;;;;;18.90;10.45;;;;;;;-0.22;100.00;95985.31;1030944;28;20051;-65
2024/03/08 00:20:25;;;;;;;20.60;12.07;;;;;;;-0.22;100.00;95984.53;1030853;28;20022;-66
2024/03/08 00:20:56;;;;;;;21.42;10.65;;;;;;;-0.25;100.00;95983.91;1030218;28;20469;-65
2024/03/08 00:21:26;;;;;;;22.05;11.18;;;;;;;-0.26;100.00;95986.69;1030866;28;20096;-67
2024/03/08 00:21:57;;;;;;;24.90;12.68;;;;;;;-0.27;100.00;95985.88;1034679;28;20457;-66
2024/03/08 00:22:30;;;;;;;20.80;11.15;;;;;;;-0.28;100.00;95984.28;1034723;28;20022;-66
2024/03/08 00:23:01;;;;;;;17.08;9.70;;;;;;;-0.26;100.00;95979.75;1030811;28;20435;-66
2024/03/08 00:23:33;;;;;;;21.70;11.02;;;;;;;-0.25;100.00;95977.94;1031031;28;20323;-65
2024/03/08 00:24:06;;;;;;;21.83;11.07;;;;;;;-0.25;100.00;95981.31;1030912;28;20025;-65
2024/03/08 00:24:37;;;;;;;20.92;10.23;;;;;;;-0.23;100.00;95983.72;1031171;28;20349;-66
2024/03/08 00:25:08;;;;;;;20.73;10.93;;;;;;;-0.22;100.00;95984.53;1030752;28;20819;-65
2024/03/08 00:25:39;;;;;;;21.30;11.80;;;;;;;-0.24;100.00;95982.91;1027368;28;20450;-66
2024/03/08 00:26:09;;;;;;;19.80;10.60;;;;;;;-0.25;100.00;95980.53;1031725;28;20254;-66
2024/03/08 00:26:40;;;;;;;24.95;11.45;;;;;;;-0.29;100.00;95974.97;1034885;28;20022;-65
2024/03/08 00:27:11;;;;;;;23.02;11.52;;;;;;;-0.25;100.00;95991.63;1035143;28;20410;-65
2024/03/08 00:27:41;;;;;;;23.35;11.05;;;;;;;-0.25;100.00;95981.31;1034229;28;20810;-66
2024/03/08 00:28:14;;;;;;;21.42;11.15;;;;;;;-0.26;100.00;95977.16;1034822;28;20256;-66
2024/03/08 00:28:45;;;;;;;22.90;11.23;;;;;;;-0.26;100.00;95979.75;1034658;28;20156;-67
2024/03/08 00:29:15;;;;;;;24.60;10.93;;;;;;;-0.28;100.00;95976.53;1031169;28;20257;-65
2024/03/08 00:29:46;;;;;;;21.70;11.15;;;;;;;-0.28;100.00;95975.75;1037442;28;20014;-65
2024/03/08 00:30:17;;;;;;;23.38;10.88;;;;;;;-0.28;100.00;95980.91;1034740;28;20014;-67
2024/03/08 00:30:47;;;;;;;20.83;11.77;;;;;;;-0.28;100.00;95979.13;1034010;28;20268;-65
2024/03/08 00:31:18;;;;;;;21.35;11.75;;;;;;;-0.29;100.00;95974.97;1038226;28;20421;-65
2024/03/08 00:31:48;;;;;;;22.05;11.50;;;;;;;-0.32;100.00;95985.63;1038698;28;20300;-67
2024/03/08 00:32:19;;;;;;;20.73;10.35;;;;;;;-0.32;100.00;95977.13;1038955;28;20030;-66
2024/03/08 00:32:49;;;;;;;27.70;11.32;;;;;;;-0.37;100.00;95975.13;1034437;28;20447;-65
2024/03/08 00:33:20;;;;;;;21.48;10.65;;;;;;;-0.34;100.00;95972.13;1030730;28;20461;-66
2024/03/08 00:33:50;;;;;;;25.17;11.93;;;;;;;-0.31;100.00;95979.50;1025474;28;20527;-69
2024/03/08 00:34:21;;;;;;;20.98;11.50;;;;;;;-0.31;100.00;95984.66;1028243;28;20030;-66
2024/03/08 00:34:51;;;;;;;22.70;11.52;;;;;;;-0.34;100.00;95972.13;1026553;28;20023;-66
2024/03/08 00:35:22;;;;;;;23.15;11.48;;;;;;;-0.36;100.00;95968.97;1026823;28;20039;-65
2024/03/08 00:35:54;;;;;;;22.35;12.30;;;;;;;-0.37;100.00;95972.53;1026694;28;20031;-66
2024/03/08 00:36:24;;;;;;;23.52;11.13;;;;;;;-0.35;100.00;95970.53;1031247;28;20034;-66
2024/03/08 00:36:55;;;;;;;21.55;10.32;;;;;;;-0.34;100.00;95969.56;1038761;28;20260;-66
2024/03/08 00:37:25;;;;;;;21.33;10.63;;;;;;;-0.33;100.00;95975.53;1038892;28;20021;-66
2024/03/08 00:37:56;;;;;;;18.70;9.82;;;;;;;-0.34;100.00;95966.19;1038987;28;20041;-65
2024/03/08 00:38:27;;;;;;;20.98;10.52;;;;;;;-0.33;100.00;95967.78;1039018;28;20036;-65
2024/03/08 00:38:58;;;;;;;23.02;11.13;;;;;;;-0.43;100.00;95954.44;1039303;28;20021;-66
2024/03/08 00:39:28;;;;;;;21.63;10.55;;;;;;;-0.37;100.00;95972.53;1038758;28;20014;-65
2024/03/08 00:39:59;;;;;;;22.20;10.02;;;;;;;-0.33;100.00;95967.78;1038587;28;20255;-67
2024/03/08 00:40:29;;;;;;;24.98;11.80;;;;;;;-0.34;100.00;95961.81;1038084;28;20013;-66
2024/03/08 00:41:00;;;;;;;22.02;10.25;;;;;;;-0.33;100.00;95971.16;1030238;28;20566;-66
2024/03/08 00:41:30;;;;;;;21.45;10.85;;;;;;;-0.30;100.00;95970.78;1033796;28;20006;-66
2024/03/08 00:42:01;;;;;;;23.08;11.43;;;;;;;-0.30;100.00;95970.78;1026778;28;20019;-67
2024/03/08 00:42:31;;;;;;;23.17;11.18;;;;;;;-0.32;100.00;95970.19;1026532;28;20069;-66
2024/03/08 00:43:03;;;;;;;23.33;11.38;;;;;;;-0.33;100.00;95972.94;1030480;28;20026;-66
2024/03/08 00:43:34;;;;;;;24.95;12.32;;;;;;;-0.34;100.00;95969.56;1030712;28;20026;-66
2024/03/08 00:44:04;;;;;;;21.73;10.90;;;;;;;-0.38;100.00;95958.03;1034403;28;20261;-65
2024/03/08 00:44:35;;;;;;;24.92;11.55;;;;;;;-0.32;100.00;95965.03;1026686;28;20689;-66
2024/03/08 00:45:05;;;;;;;25.08;11.88;;;;;;;-0.33;100.00;95967.78;1026585;28;20023;-66
2024/03/08 00:45:36;;;;;;;20.45;11.40;;;;;;;-0.34;100.00;95972.13;1030665;28;20176;-66
2024/03/08 00:46:07;;;;;;;19.27;10.27;;;;;;;-0.36;100.00;95963.81;1035088;28;20032;-66
2024/03/08 00:46:38;;;;;;;17.35;9.35;;;;;;;-0.36;100.00;95958.66;1038956;28;20014;-66
2024/03/08 00:47:08;;;;;;;20.63;10.75;;;;;;;-0.34;100.00;95966.97;1034600;28;20026;-66
2024/03/08 00:47:39;;;;;;;22.80;10.93;;;;;;;-0.34;100.00;95972.13;1030789;28;20081;-66
2024/03/08 00:48:10;;;;;;;23.20;11.30;;;;;;;-0.34;100.00;95968.75;1026624;28;20022;-65
2024/03/08 00:48:43;;;;;;;24.98;11.43;;;;;;;-0.36;100.00;95963.81;1026991;28;20015;-65
2024/03/08 00:49:13;;;;;;;21.20;10.18;;;;;;;-0.32;100.00;95969.38;1035131;28;20288;-66
2024/03/08 00:49:44;;;;;;;21.92;11.10;;;;;;;-0.33;100.00;95968.59;1038849;28;20651;-66
2024/03/08 00:50:14;;;;;;;24.33;11.38;;;;;;;-0.33;100.00;95968.59;1039349;28;20021;-66
2024/03/08 00:50:45;;;;;;;22.25;11.55;;;;;;;-0.36;100.00;95958.66;1038554;28;20028;-66
2024/03/08 00:51:16;;;;;;;22.33;11.55;;;;;;;-0.36;100.00;95963.81;1034168;28;20030;-67
2024/03/08 00:51:46;;;;;;;22.42;10.38;;;;;;;-0.35;100.00;95960.25;1030599;28;20045;-66
2024/03/08 00:52:18;;;;;;;21.38;11.38;;;;;;;-0.35;100.00;95960.25;1030562;28;20014;-66
2024/03/08 00:52:48;;;;;;;22.48;11.10;;;;;;;-0.37;100.00;95966.56;1035268;28;20030;-66
2024/03/08 00:53:19;;;;;;;23.23;11.45;;;;;;;-0.40;100.00;95957.44;1038761;28;20748;-65
2024/03/08 00:53:49;;;;;;;20.15;11.27;;;;;;;-0.39;100.00;95959.03;1038681;28;20036;-67
2024/03/08 00:54:20;;;;;;;24.08;11.05;;;;;;;-0.40;100.00;95959.19;1039067;28;20052;-66
2024/03/08 00:54:50;;;;;;;24.95;11.70;;;;;;;-0.42;100.00;95958.59;1038627;28;20037;-67
2024/03/08 00:55:21;;;;;;;21.88;10.95;;;;;;;-0.42;100.00;95958.59;1034866;28;20017;-67
2024/03/08 00:55:51;;;;;;;21.42;11.13;;;;;;;-0.44;100.00;95956.19;1030489;28;20018;-67
2024/03/08 00:56:21;;;;;;;23.60;11.27;;;;;;;-0.44;100.00;95958.78;1030639;28;20021;-66
2024/03/08 00:56:52;;;;;;;24.08;11.30;;;;;;;-0.42;100.00;95949.09;1030824;28;20023;-66
2024/03/08 00:57:22;;;;;;;25.73;11.45;;;;;;;-0.42;100.00;95950.88;1038549;28;20481;-66
2024/03/08 00:57:53;;;;;;;22.67;10.68;;;;;;;-0.41;100.00;95953.25;1038847;28;20087;-67
2024/03/08 00:58:24;;;;;;;18.92;10.25;;;;;;;-0.40;100.00;95952.28;1038982;28;20026;-66
2024/03/08 00:58:57;;;;;;;20.23;10.63;;;;;;;-0.40;100.00;95957.44;1034340;28;20017;-66
2024/03/08 00:59:27;;;;;;;23.50;11.18;;;;;;;-0.41;100.00;95955.03;1030784;28;20267;-67
2024/03/08 00:59:58;;;;;;;22.42;10.80;;;;;;;-0.41;100.00;95950.69;1031013;28;20025;-65
2024/03/08 01:00:28;;;;;;;23.08;10.85;;;;;;;-0.42;100.00;95953.44;1035005;28;20021;-66
2024/03/08 01:00:59;;;;;;;26.02;12.30;;;;;;;-0.44;100.00;95947.69;1038210;28;20013;-66
2024/03/08 01:01:30;;;;;;;25.63;12.68;;;;;;;-0.43;100.00;95946.72;1039026;28;20036;-66
2024/03/08 01:02:01;;;;;;;24.05;11.68;;;;;;;-0.46;100.00;95947.09;1039060;28;20252;-65
2024/03/08 01:02:33;;;;;;;23.08;11.68;;;;;;;-0.48;100.00;95955.00;1038661;28;20033;-67
2024/03/08 01:03:04;;;;;;;24.00;10.75;;;;;;;-0.47;100.00;95948.84;1038601;28;20268;-66
2024/03/08 01:03:34;;;;;;;19.98;10.20;;;;;;;-0.48;100.00;95955.00;1034678;28;20787;-66
2024/03/08 01:04:05;;;;;;;21.50;11.82;;;;;;;-0.49;100.00;95950.81;1034567;28;20253;-66
2024/03/08 01:04:35;;;;;;;21.73;11.25;;;;;;;-0.48;100.00;95947.25;1034520;28;20038;-66
2024/03/08 01:05:07;;;;;;;28.10;12.82;;;;;;;-0.46;100.00;95944.50;1034789;28;20022;-66
2024/03/08 01:05:37;;;;;;;24.73;11.73;;;;;;;-0.49;100.00;95950.81;1038582;28;20053;-67
2024/03/08 01:06:08;;;;;;;21.55;11.23;;;;;;;-0.52;100.00;95946.03;1038689;28;20252;-66
2024/03/08 01:06:38;;;;;;;25.67;11.93;;;;;;;-0.50;100.00;95946.66;1038909;28;20029;-65
2024/03/08 01:07:09;;;;;;;23.33;11.88;;;;;;;-0.51;100.00;95951.00;1038736;28;20017;-66
2024/03/08 01:07:39;;;;;;;24.75;11.82;;;;;;;-0.52;100.00;95948.63;1031824;28;20592;-66
2024/03/08 01:08:11;;;;;;;23.58;11.52;;;;;;;-0.53;100.00;95950.41;1026548;28;20653;-67
2024/03/08 01:08:42;;;;;;;21.58;10.68;;;;;;;-0.53;100.00;95950.41;1030608;28;20138;-67
2024/03/08 01:09:13;;;;;;;22.25;10.68;;;;;;;-0.51;100.00;95950.22;1030851;28;20266;-66
2024/03/08 01:09:43;;;;;;;25.63;11.93;;;;;;;-0.51;100.00;95960.50;1034544;28;20113;-66
2024/03/08 01:10:14;;;;;;;23.20;11.55;;;;;;;-0.53;100.00;95952.97;1034975;28;20616;-66
2024/03/08 01:10:44;;;;;;;23.42;12.32;;;;;;;-0.54;100.00;95948.81;1034939;28;20089;-65
2024/03/08 01:11:17;;;;;;;21.60;11.45;;;;;;;-0.52;100.00;95943.47;1038093;28;20041;-66
2024/03/08 01:11:49;;;;;;;22.38;11.43;;;;;;;-0.52;100.00;95951.19;1034835;28;20052;-66
2024/03/08 01:12:20;;;;;;;26.15;11.73;;;;;;;-0.53;100.00;95947.03;1034619;28;20257;-66
2024/03/08 01:12:50;;;;;;;25.33;11.50;;;;;;;-0.50;100.00;95951.81;1030489;28;20266;-66
2024/03/08 01:13:21;;;;;;;20.02;9.95;;;;;;;-0.51;100.00;95950.22;1031062;28;20023;-65
2024/03/08 01:13:53;;;;;;;21.92;11.63;;;;;;;-0.51;100.00;95945.06;1034857;28;20027;-65
2024/03/08 01:14:24;;;;;;;21.23;11.63;;;;;;;-0.53;100.00;95941.88;1030901;28;20105;-65
2024/03/08 01:14:54;;;;;;;24.73;11.57;;;;;;;-0.50;100.00;95951.81;1030852;28;20279;-66
2024/03/08 01:15:25;;;;;;;21.65;11.25;;;;;;;-0.51;100.00;95947.63;1030434;28;20533;-67
2024/03/08 01:15:55;;;;;;;23.15;11.45;;;;;;;-0.52;100.00;95944.25;1030311;28;20086;-66
2024/03/08 01:16:25;;;;;;;18.33;9.88;;;;;;;-0.52;100.00;95948.63;1034604;28;20017;-67
2024/03/08 01:16:56;;;;;;;20.80;11.25;;;;;;;-0.53;100.00;95952.19;1034458;28;20018;-66
2024/03/08 01:17:26;;;;;;;22.75;10.98;;;;;;;-0.50;100.00;95941.50;1034688;28;20029;-66
2024/03/08 01:17:57;;;;;;;25.92;12.35;;;;;;;-0.51;100.00;95939.91;1038912;28;20017;-65
2024/03/08 01:18:28;;;;;;;22.38;11.20;;;;;;;-0.52;100.00;95943.47;1039446;28;20033;-66
2024/03/08 01:18:58;;;;;;;23.95;11.30;;;;;;;-0.53;100.00;95947.84;1039991;28;20018;-66
2024/03/08 01:19:29;;;;;;;23.75;11.38;;;;;;;-0.52;100.00;95944.25;1039218;28;20071;-66
2024/03/08 01:19:59;;;;;;;24.90;11.55;;;;;;;-0.51;100.00;95952.78;1035372;28;20026;-66
2024/03/08 01:20:29;;;;;;;25.90;12.02;;;;;;;-0.51;100.00;95945.06;1035363;28;20456;-66
2024/03/08 01:21:00;;;;;;;26.23;11.88;;;;;;;-0.54;100.00;95938.53;1034677;28;20045;-66
2024/03/08 01:21:30;;;;;;;22.38;11.90;;;;;;;-0.53;100.00;95937.53;1031647;28;20015;-66
2024/03/08 01:22:01;;;;;;;21.95;12.00;;;;;;;-0.57;100.00;95935.50;1035259;28;20018;-66
2024/03/08 01:22:31;;;;;;;21.70;10.82;;;;;;;-0.54;100.00;95940.28;1035381;28;20041;-66
2024/03/08 01:23:02;;;;;;;24.67;11.05;;;;;;;-0.54;100.00;95937.69;1035415;28;20021;-67
2024/03/08 01:23:32;;;;;;;28.08;12.05;;;;;;;-0.58;100.00;95942.44;1031382;28;20018;-67
2024/03/08 01:24:03;;;;;;;24.70;11.15;;;;;;;-0.58;100.00;95931.34;1035573;28;20021;-66
2024/03/08 01:24:34;;;;;;;24.23;12.02;;;;;;;-0.58;100.00;95928.75;1035110;28;20040;-66
2024/03/08 01:25:05;;;;;;;26.95;11.45;;;;;;;-0.59;100.00;95932.31;1031589;28;20033;-66
2024/03/08 01:25:36;;;;;;;23.42;11.35;;;;;;;-0.58;100.00;95933.91;1027464;28;20809;-66
2024/03/08 01:26:06;;;;;;;26.83;11.30;;;;;;;-0.56;100.00;95931.94;1023448;28;20372;-67
2024/03/08 01:26:36;;;;;;;21.58;11.55;;;;;;;-0.59;100.00;95937.47;1023501;28;20517;-65
2024/03/08 01:27:09;;;;;;;27.13;12.75;;;;;;;-0.57;100.00;95932.91;1023598;28;20015;-66
2024/03/08 01:27:39;;;;;;;20.40;11.10;;;;;;;-0.57;100.00;95931.16;1031464;28;20093;-66
2024/03/08 01:28:10;;;;;;;22.77;11.75;;;;;;;-0.59;100.00;95927.97;1035713;28;21187;-66
2024/03/08 01:28:40;;;;;;;23.90;11.52;;;;;;;-0.59;100.00;95927.97;1035591;28;20119;-65
2024/03/08 01:29:10;;;;;;;22.13;11.35;;;;;;;-0.57;100.00;95920.03;1031170;28;20022;-66
2024/03/08 01:29:41;;;;;;;24.17;11.50;;;;;;;-0.60;100.00;95923.81;1031313;28;20046;-66
2024/03/08 01:30:12;;;;;;;24.20;12.70;;;;;;;-0.59;100.00;95922.00;1027297;28;20038;-65
2024/03/08 01:30:42;;;;;;;25.75;12.23;;;;;;;-0.61;100.00;95924.75;1026849;28;20121;-67
2024/03/08 01:31:13;;;;;;;20.60;11.45;;;;;;;-0.62;100.00;95922.38;1033932;28;20265;-66
2024/03/08 01:31:44;;;;;;;23.35;11.30;;;;;;;-0.62;100.00;95922.38;1031580;28;20022;-66
2024/03/08 01:32:14;;;;;;;21.77;11.30;;;;;;;-0.63;100.00;95913.06;1035463;28;20073;-66
2024/03/08 01:32:45;;;;;;;25.90;12.15;;;;;;;-0.60;100.00;95923.00;1031235;28;20030;-67
2024/03/08 01:33:15;;;;;;;21.20;10.93;;;;;;;-0.57;100.00;95920.03;1031273;28;20615;-66
2024/03/08 01:33:46;;;;;;;23.95;11.77;;;;;;;-0.58;100.00;95921.81;1031627;28;20470;-66
2024/03/08 01:34:16;;;;;;;22.17;11.77;;;;;;;-0.60;100.00;95920.44;1031167;28;20604;-66
2024/03/08 01:34:46;;;;;;;25.08;12.50;;;;;;;-0.60;100.00;95920.44;1037378;28;20097;-66
2024/03/08 01:35:18;;;;;;;22.73;11.80;;;;;;;-0.61;100.00;95919.59;1035474;28;20062;-66
2024/03/08 01:35:48;;;;;;;22.98;12.20;;;;;;;-0.63;100.00;95916.44;1035725;28;20390;-66
2024/03/08 01:36:19;;;;;;;22.08;12.30;;;;;;;-0.65;100.00;95918.41;1039295;28;20263;-66
2024/03/08 01:36:49;;;;;;;22.90;11.48;;;;;;;-0.66;100.00;95910.88;1035147;28;20018;-65
2024/03/08 01:37:20;;;;;;;22.20;12.70;;;;;;;-0.66;100.00;95910.88;1035503;28;20375;-65
2024/03/08 01:37:50;;;;;;;21.70;11.93;;;;;;;-0.65;100.00;95913.25;1035500;28;20283;-67
2024/03/08 01:38:21;;;;;;;25.02;12.10;;;;;;;-0.65;100.00;95922.75;1031002;28;20026;-66
2024/03/08 01:38:52;;;;;;;22.75;11.40;;;;;;;-0.65;100.00;95917.59;1031234;28;20014;-66
2024/03/08 01:39:22;;;;;;;24.70;12.13;;;;;;;-0.68;100.00;95912.81;1027659;28;20118;-66
2024/03/08 01:39:52;;;;;;;28.70;12.85;;;;;;;-0.67;100.00;95916.97;1027161;28;20085;-66
2024/03/08 01:40:23;;;;;;;25.50;12.50;;;;;;;-0.67;100.00;95909.25;1031580;28;20029;-66
2024/03/08 01:40:53;;;;;;;23.80;11.55;;;;;;;-0.71;100.00;95917.34;1034873;28;20030;-66
2024/03/08 01:41:24;;;;;;;23.95;13.13;;;;;;;-0.68;100.00;95911.03;1039424;28;20017;-66
2024/03/08 01:41:54;;;;;;;23.77;12.77;;;;;;;-0.67;100.00;95915.22;1039647;28;20014;-67
2024/03/08 01:42:25;;;;;;;21.20;11.82;;;;;;;-0.73;100.00;95909.03;1039290;28;20010;-65
2024/03/08 01:42:55;;;;;;;25.88;12.82;;;;;;;-0.69;100.00;95914.63;1035328;28;20018;-65
2024/03/08 01:43:28;;;;;;;25.23;12.07;;;;;;;-0.67;100.00;95906.69;1035505;28;20073;-66
2024/03/08 01:43:58;;;;;;;20.98;11.13;;;;;;;-0.68;100.00;95910.25;1031294;28;20023;-67
2024/03/08 01:44:30;;;;;;;23.52;11.65;;;;;;;-0.68;100.00;95911.03;1027715;28;20260;-65
2024/03/08 01:45:00;;;;;;;29.25;14.40;;;;;;;-0.67;100.00;95910.06;1031102;28;20098;-67
2024/03/08 01:45:34;;;;;;;25.90;12.57;;;;;;;-0.69;100.00;95916.41;1031885;28;20250;-66
2024/03/08 01:46:04;;;;;;;21.65;12.35;;;;;;;-0.69;100.00;95906.09;1035603;28;20056;-66
2024/03/08 01:46:35;;;;;;;20.63;10.75;;;;;;;-0.73;100.00;95901.31;1032271;28;20261;-66
2024/03/08 01:47:05;;;;;;;26.42;12.55;;;;;;;-0.82;100.00;95897.28;1031470;28;20015;-66
2024/03/08 01:47:36;;;;;;;23.23;11.70;;;;;;;-0.69;100.00;95912.03;1027548;28;20018;-67
2024/03/08 01:48:06;;;;;;;27.60;12.98;;;;;;;-0.73;100.00;95906.47;1027211;28;20015;-67
2024/03/08 01:48:37;;;;;;;22.17;11.35;;;;;;;-0.69;100.00;95911.25;1023290;28;20011;-66
2024/03/08 01:49:07;;;;;;;28.83;13.13;;;;;;;-0.71;100.00;95911.41;1023246;29;20023;-65
2024/03/08 01:49:38;;;;;;;25.52;12.77;;;;;;;-0.73;100.00;95916.78;1027192;28;20059;-66
2024/03/08 01:50:09;;;;;;;26.65;11.98;;;;;;;-0.73;100.00;95911.63;1023367;29;20529;-67
2024/03/08 01:50:39;;;;;;;24.35;12.20;;;;;;;-0.73;100.00;95911.63;1027055;28;20122;-66
2024/03/08 01:51:11;;;;;;;27.90;13.30;;;;;;;-0.69;100.00;95916.41;1026302;28;20062;-66
2024/03/08 01:51:42;;;;;;;26.17;12.50;;;;;;;-0.69;100.00;95911.25;1024218;28;20046;-66
2024/03/08 01:52:12;;;;;;;23.63;12.00;;;;;;;-0.66;100.00;95905.72;1036793;28;20256;-66
2024/03/08 01:52:43;;;;;;;24.65;12.23;;;;;;;-0.67;100.00;95901.53;1039543;28;20402;-67
2024/03/08 01:53:15;;;;;;;25.38;13.13;;;;;;;-0.67;100.00;95906.69;1031122;28;20544;-66
2024/03/08 01:53:46;;;;;;;24.88;12.07;;;;;;;-0.71;100.00;95904.47;1031357;28;20526;-66
2024/03/08 01:54:16;;;;;;;23.85;11.65;;;;;;;-0.75;100.00;95892.97;1027349;28;20269;-67
2024/03/08 01:54:47;;;;;;;26.13;12.15;;;;;;;-0.71;100.00;95906.25;1023970;28;20874;-67
2024/03/08 01:55:18;;;;;;;27.48;13.70;;;;;;;-0.76;100.00;95896.53;1031177;28;20018;-66
2024/03/08 01:55:48;;;;;;;24.77;12.63;;;;;;;-0.75;100.00;95897.31;1027507;28;20022;-66
2024/03/08 01:56:19;;;;;;;25.70;12.95;;;;;;;-0.75;100.00;95897.31;1027213;28;20442;-66
2024/03/08 01:56:49;;;;;;;21.90;11.65;;;;;;;-0.75;100.00;95903.25;1023464;29;20058;-66
2024/03/08 01:57:20;;;;;;;25.58;12.75;;;;;;;-0.76;100.00;95895.75;1022907;29;20030;-67
2024/03/08 01:57:51;;;;;;;27.73;12.02;;;;;;;-0.80;100.00;95892.75;1023114;29;20518;-66
2024/03/08 01:58:21;;;;;;;27.45;12.63;;;;;;;-0.76;100.00;95901.69;1023538;29;20020;-66
2024/03/08 01:58:52;;;;;;;27.92;11.75;;;;;;;-0.74;100.00;95893.75;1019179;29;20016;-66
2024/03/08 01:59:23;;;;;;;26.55;12.65;;;;;;;-0.75;100.00;95892.97;1023532;28;20020;-66
2024/03/08 01:59:55;;;;;;;25.92;12.80;;;;;;;-0.77;100.00;95897.53;1019681;28;20635;-67
2024/03/08 02:00:26;;;;;;;24.23;11.13;;;;;;;-0.76;100.00;95893.94;1023585;28;20015;-65
2024/03/08 02:00:58;;;;;;;29.33;11.98;;;;;;;-0.75;100.00;95892.97;1019122;28;20798;-66
2024/03/08 02:01:28;;;;;;;26.25;12.20;;;;;;;-0.76;100.00;95891.38;1019034;29;20054;-66
2024/03/08 02:02:01;;;;;;;26.40;12.48;;;;;;;-0.76;100.00;95885.44;1019282;29;20767;-67
2024/03/08 02:02:32;;;;;;;25.48;12.20;;;;;;;-0.76;100.00;95886.22;1022767;28;20134;-66
2024/03/08 02:03:05;;;;;;;26.70;12.07;;;;;;;-0.76;100.00;95888.00;1023973;28;20281;-66
2024/03/08 02:03:35;;;;;;;27.17;11.90;;;;;;;-0.78;100.00;95888.19;1027267;28;20273;-66
2024/03/08 02:04:07;;;;;;;27.48;12.50;;;;;;;-0.78;100.00;95893.34;1028090;28;20022;-66
2024/03/08 02:04:38;;;;;;;27.20;12.75;;;;;;;-0.81;100.00;95883.41;1035190;28;20025;-66
2024/03/08 02:05:09;;;;;;;24.60;12.23;;;;;;;-0.82;100.00;95879.25;1031554;28;20258;-67
2024/03/08 02:05:40;;;;;;;27.30;12.75;;;;;;;-0.85;100.00;95877.03;1023347;28;20366;-66
2024/03/08 02:06:16;;;;;;;24.95;11.95;;;;;;;-0.81;100.00;95883.41;1023198;29;20022;-66
2024/03/08 02:06:47;;;;;;;22.15;11.15;;;;;;;-0.80;100.00;95879.06;1023037;29;20266;-66
2024/03/08 02:07:18;;;;;;;25.88;12.23;;;;;;;-0.80;100.00;95879.88;1022997;28;20349;-66
2024/03/08 02:07:48;;;;;;;24.23;11.23;;;;;;;-0.77;100.00;95886.41;1024349;28;20767;-66
2024/03/08 02:08:20;;;;;;;26.38;12.18;;;;;;;-0.80;100.00;95879.88;1028037;28;20117;-67
2024/03/08 02:08:53;;;;;;;23.65;12.18;;;;;;;-0.77;100.00;95884.66;1027528;28;20514;-66
2024/03/08 02:09:24;;;;;;;26.70;12.75;;;;;;;-0.78;100.00;95882.25;1027367;28;20277;-67
2024/03/08 02:09:55;;;;;;;25.02;11.55;;;;;;;-0.78;100.00;95890.75;1022819;29;20779;-66
2024/03/08 02:10:25;;;;;;;26.60;12.27;;;;;;;-0.79;100.00;95886.59;1027384;28;20277;-66
2024/03/08 02:10:56;;;;;;;26.00;11.90;;;;;;;-0.79;100.00;95884.03;1022392;29;20423;-66
2024/03/08 02:11:26;;;;;;;26.08;12.13;;;;;;;-0.81;100.00;95888.56;1019255;29;20476;-66
2024/03/08 02:11:57;;;;;;;24.75;12.13;;;;;;;-0.81;100.00;95883.41;1023613;28;20797;-66
2024/03/08 02:12:28;;;;;;;22.88;11.82;;;;;;;-0.83;100.00;95882.81;1027549;28;20422;-66
2024/03/08 02:13:00;;;;;;;24.48;12.43;;;;;;;-0.84;100.00;95885.56;1027396;28;20518;-66
2024/03/08 02:13:30;;;;;;;25.48;12.75;;;;;;;-0.86;100.00;95880.59;1031439;28;20262;-67
2024/03/08 02:14:01;;;;;;;25.15;12.73;;;;;;;-0.86;100.00;95885.75;1031373;28;20273;-66
2024/03/08 02:14:31;;;;;;;26.35;12.65;;;;;;;-0.86;100.00;95875.47;1035679;28;20022;-67
2024/03/08 02:15:01;;;;;;;26.95;12.65;;;;;;;-0.85;100.00;95882.19;1039088;28;20017;-67
2024/03/08 02:15:51;;;;;;;28.95;12.85;;;;;;;-0.86;100.00;95880.59;1039256;28;20030;-66
2024/03/08 02:16:22;;;;;;;25.63;11.93;;;;;;;-0.89;100.00;95880.19;1037770;28;19998;-66
2024/03/08 02:16:54;;;;;;;28.65;13.35;;;;;;;-0.88;100.00;95879.19;1031167;28;20364;-66
2024/03/08 02:17:24;;;;;;;27.65;13.30;;;;;;;-0.88;100.00;95882.56;1031488;28;20026;-66
2024/03/08 02:17:54;;;;;;;24.60;12.38;;;;;;;-0.89;100.00;95875.81;1027216;28;20262;-65
2024/03/08 02:18:25;;;;;;;26.08;12.32;;;;;;;-0.92;100.00;95875.41;1031546;28;20023;-64
2024/03/08 02:18:56;;;;;;;24.00;13.00;;;;;;;-0.90;100.00;95874.25;1031536;28;20018;-66
2024/03/08 02:19:26;;;;;;;29.48;13.30;;;;;;;-0.91;100.00;95877.78;1027128;28;20026;-67
2024/03/08 02:19:57;;;;;;;25.52;12.38;;;;;;;-0.92;100.00;95871.03;1031287;28;20429;-66
2024/03/08 02:20:29;;;;;;;24.73;12.02;;;;;;;-0.95;100.00;95871.41;1031440;28;20092;-67